sensor_id;sensor_type;location;lat;lon;timestamp;P1;durP1;ratioP1;P2;durP2;ratioP2
70975;SDS011;58635;51.198;6.010;2022-07-10T00:00:27;6.05;;;1.75;;
70975;SDS011;58635;51.198;6.010;2022-07-10T00:02:56;4.53;;;1.92;;
70975;SDS011;58635;51.198;6.010;2022-07-10T00:05:22;6.63;;;1.80;;
70975;SDS011;58635;51.198;6.010;2022-07-10T00:07:49;4.80;;;1.50;;
70975;SDS011;58635;51.198;6.010;2022-07-10T00:10:16;7.57;;;1.92;;
70975;SDS011;58635;51.198;6.010;2022-07-10T00:12:43;10.00;;;2.00;;
70975;SDS011;58635;51.198;6.010;2022-07-10T00:15:09;5.25;;;1.63;;
70975;SDS011;58635;51.198;6.010;2022-07-10T00:17:35;5.20;;;1.80;;
70975;SDS011;58635;51.198;6.010;2022-07-10T00:20:01;4.75;;;1.63;;
70975;SDS011;58635;51.198;6.010;2022-07-10T00:22:28;7.63;;;2.08;;
70975;SDS011;58635;51.198;6.010;2022-07-10T00:24:53;6.15;;;2.03;;
70975;SDS011;58635;51.198;6.010;2022-07-10T00:27:19;6.45;;;2.00;;
70975;SDS011;58635;51.198;6.010;2022-07-10T00:29:44;8.23;;;2.33;;
70975;SDS011;58635;51.198;6.010;2022-07-10T00:32:10;5.95;;;2.08;;
70975;SDS011;58635;51.198;6.010;2022-07-10T00:34:36;4.75;;;2.03;;
70975;SDS011;58635;51.198;6.010;2022-07-10T00:37:02;4.47;;;1.92;;
70975;SDS011;58635;51.198;6.010;2022-07-10T00:39:28;5.65;;;2.00;;
70975;SDS011;58635;51.198;6.010;2022-07-10T00:41:54;4.70;;;2.00;;
70975;SDS011;58635;51.198;6.010;2022-07-10T00:44:19;7.28;;;2.25;;
70975;SDS011;58635;51.198;6.010;2022-07-10T00:46:44;6.80;;;1.98;;
70975;SDS011;58635;51.198;6.010;2022-07-10T00:49:10;7.60;;;2.15;;
70975;SDS011;58635;51.198;6.010;2022-07-10T00:51:35;5.40;;;1.65;;
70975;SDS011;58635;51.198;6.010;2022-07-10T00:54:02;6.55;;;1.83;;
70975;SDS011;58635;51.198;6.010;2022-07-10T00:56:29;3.90;;;1.73;;
70975;SDS011;58635;51.198;6.010;2022-07-10T00:58:56;7.15;;;2.25;;
70975;SDS011;58635;51.198;6.010;2022-07-10T01:01:22;6.10;;;2.40;;
70975;SDS011;58635;51.198;6.010;2022-07-10T01:03:48;9.43;;;3.00;;
70975;SDS011;58635;51.198;6.010;2022-07-10T01:06:14;8.50;;;2.63;;
70975;SDS011;58635;51.198;6.010;2022-07-10T01:08:40;8.63;;;2.05;;
70975;SDS011;58635;51.198;6.010;2022-07-10T01:11:05;5.88;;;2.00;;
70975;SDS011;58635;51.198;6.010;2022-07-10T01:13:32;6.30;;;1.88;;
70975;SDS011;58635;51.198;6.010;2022-07-10T01:15:57;7.22;;;2.33;;
70975;SDS011;58635;51.198;6.010;2022-07-10T01:18:24;4.45;;;1.95;;
70975;SDS011;58635;51.198;6.010;2022-07-10T01:20:51;5.03;;;2.00;;
70975;SDS011;58635;51.198;6.010;2022-07-10T01:23:17;8.02;;;2.13;;
70975;SDS011;58635;51.198;6.010;2022-07-10T01:25:42;7.57;;;2.20;;
70975;SDS011;58635;51.198;6.010;2022-07-10T01:28:08;7.65;;;2.10;;
70975;SDS011;58635;51.198;6.010;2022-07-10T01:30:33;5.45;;;1.92;;
70975;SDS011;58635;51.198;6.010;2022-07-10T01:32:59;5.18;;;1.98;;
70975;SDS011;58635;51.198;6.010;2022-07-10T01:35:24;6.80;;;1.90;;
70975;SDS011;58635;51.198;6.010;2022-07-10T01:37:50;6.10;;;1.65;;
70975;SDS011;58635;51.198;6.010;2022-07-10T01:40:15;8.30;;;1.85;;
70975;SDS011;58635;51.198;6.010;2022-07-10T01:42:40;5.45;;;1.90;;
70975;SDS011;58635;51.198;6.010;2022-07-10T01:45:09;7.90;;;1.90;;
70975;SDS011;58635;51.198;6.010;2022-07-10T01:47:35;5.30;;;1.90;;
70975;SDS011;58635;51.198;6.010;2022-07-10T01:50:01;5.40;;;2.03;;
70975;SDS011;58635;51.198;6.010;2022-07-10T01:52:28;4.75;;;1.70;;
70975;SDS011;58635;51.198;6.010;2022-07-10T01:54:53;7.00;;;1.70;;
70975;SDS011;58635;51.198;6.010;2022-07-10T01:57:19;6.10;;;1.70;;
70975;SDS011;58635;51.198;6.010;2022-07-10T01:59:44;5.18;;;2.17;;
70975;SDS011;58635;51.198;6.010;2022-07-10T02:02:09;5.93;;;1.90;;
70975;SDS011;58635;51.198;6.010;2022-07-10T02:04:35;6.50;;;1.90;;
70975;SDS011;58635;51.198;6.010;2022-07-10T02:07:14;5.35;;;1.90;;
70975;SDS011;58635;51.198;6.010;2022-07-10T02:09:41;7.35;;;2.05;;
70975;SDS011;58635;51.198;6.010;2022-07-10T02:12:08;8.13;;;2.30;;
70975;SDS011;58635;51.198;6.010;2022-07-10T02:14:35;6.75;;;1.98;;
70975;SDS011;58635;51.198;6.010;2022-07-10T02:17:01;7.05;;;2.58;;
70975;SDS011;58635;51.198;6.010;2022-07-10T02:19:26;6.25;;;1.90;;
70975;SDS011;58635;51.198;6.010;2022-07-10T02:21:52;5.25;;;2.00;;
70975;SDS011;58635;51.198;6.010;2022-07-10T02:24:18;7.55;;;2.17;;
70975;SDS011;58635;51.198;6.010;2022-07-10T02:26:43;4.28;;;1.90;;
70975;SDS011;58635;51.198;6.010;2022-07-10T02:29:09;9.32;;;2.33;;
70975;SDS011;58635;51.198;6.010;2022-07-10T02:31:34;5.63;;;2.00;;
70975;SDS011;58635;51.198;6.010;2022-07-10T02:34:05;7.05;;;2.33;;
70975;SDS011;58635;51.198;6.010;2022-07-10T02:36:30;5.80;;;1.90;;
70975;SDS011;58635;51.198;6.010;2022-07-10T02:38:56;7.10;;;2.30;;
70975;SDS011;58635;51.198;6.010;2022-07-10T02:41:21;6.20;;;2.13;;
70975;SDS011;58635;51.198;6.010;2022-07-10T02:43:46;6.50;;;1.90;;
70975;SDS011;58635;51.198;6.010;2022-07-10T02:46:12;7.38;;;2.03;;
70975;SDS011;58635;51.198;6.010;2022-07-10T02:48:37;5.40;;;2.20;;
70975;SDS011;58635;51.198;6.010;2022-07-10T02:51:03;6.80;;;2.25;;
70975;SDS011;58635;51.198;6.010;2022-07-10T02:53:28;7.47;;;2.47;;
70975;SDS011;58635;51.198;6.010;2022-07-10T02:55:54;5.78;;;2.30;;
70975;SDS011;58635;51.198;6.010;2022-07-10T02:58:19;7.60;;;2.08;;
70975;SDS011;58635;51.198;6.010;2022-07-10T03:00:45;9.60;;;2.20;;
70975;SDS011;58635;51.198;6.010;2022-07-10T03:03:10;8.93;;;2.30;;
70975;SDS011;58635;51.198;6.010;2022-07-10T03:05:36;8.10;;;2.30;;
70975;SDS011;58635;51.198;6.010;2022-07-10T03:08:01;4.75;;;2.30;;
70975;SDS011;58635;51.198;6.010;2022-07-10T03:10:27;5.22;;;2.08;;
70975;SDS011;58635;51.198;6.010;2022-07-10T03:12:52;10.85;;;2.42;;
70975;SDS011;58635;51.198;6.010;2022-07-10T03:15:17;6.60;;;2.00;;
70975;SDS011;58635;51.198;6.010;2022-07-10T03:17:43;7.50;;;2.25;;
70975;SDS011;58635;51.198;6.010;2022-07-10T03:20:09;5.18;;;2.17;;
70975;SDS011;58635;51.198;6.010;2022-07-10T03:22:35;9.55;;;2.20;;
70975;SDS011;58635;51.198;6.010;2022-07-10T03:25:01;7.18;;;2.10;;
70975;SDS011;58635;51.198;6.010;2022-07-10T03:27:26;6.35;;;2.30;;
70975;SDS011;58635;51.198;6.010;2022-07-10T03:29:51;5.88;;;2.35;;
70975;SDS011;58635;51.198;6.010;2022-07-10T03:32:17;6.82;;;2.10;;
70975;SDS011;58635;51.198;6.010;2022-07-10T03:34:42;7.40;;;2.17;;
70975;SDS011;58635;51.198;6.010;2022-07-10T03:37:08;7.45;;;2.15;;
70975;SDS011;58635;51.198;6.010;2022-07-10T03:39:33;7.43;;;2.10;;
70975;SDS011;58635;51.198;6.010;2022-07-10T03:41:59;7.35;;;2.20;;
70975;SDS011;58635;51.198;6.010;2022-07-10T03:44:24;6.57;;;2.20;;
70975;SDS011;58635;51.198;6.010;2022-07-10T03:46:50;7.38;;;2.20;;
70975;SDS011;58635;51.198;6.010;2022-07-10T03:49:15;8.85;;;2.05;;
70975;SDS011;58635;51.198;6.010;2022-07-10T03:51:41;7.25;;;2.45;;
70975;SDS011;58635;51.198;6.010;2022-07-10T03:54:06;7.13;;;2.30;;
70975;SDS011;58635;51.198;6.010;2022-07-10T03:56:32;5.93;;;1.95;;
70975;SDS011;58635;51.198;6.010;2022-07-10T03:59:15;6.68;;;2.35;;
70975;SDS011;58635;51.198;6.010;2022-07-10T04:01:41;8.20;;;2.50;;
70975;SDS011;58635;51.198;6.010;2022-07-10T04:04:06;7.85;;;2.13;;
70975;SDS011;58635;51.198;6.010;2022-07-10T04:06:31;7.18;;;2.30;;
70975;SDS011;58635;51.198;6.010;2022-07-10T04:08:57;8.40;;;2.35;;
70975;SDS011;58635;51.198;6.010;2022-07-10T04:11:22;7.80;;;2.13;;
70975;SDS011;58635;51.198;6.010;2022-07-10T04:13:47;9.68;;;2.33;;
70975;SDS011;58635;51.198;6.010;2022-07-10T04:16:13;4.57;;;2.15;;
70975;SDS011;58635;51.198;6.010;2022-07-10T04:18:39;7.47;;;2.53;;
70975;SDS011;58635;51.198;6.010;2022-07-10T04:21:04;6.07;;;2.20;;
70975;SDS011;58635;51.198;6.010;2022-07-10T04:23:31;9.13;;;2.40;;
70975;SDS011;58635;51.198;6.010;2022-07-10T04:25:57;6.72;;;2.30;;
70975;SDS011;58635;51.198;6.010;2022-07-10T04:28:23;5.20;;;2.38;;
70975;SDS011;58635;51.198;6.010;2022-07-10T04:30:48;8.98;;;2.40;;
70975;SDS011;58635;51.198;6.010;2022-07-10T04:33:14;6.88;;;2.38;;
70975;SDS011;58635;51.198;6.010;2022-07-10T04:35:39;5.68;;;2.20;;
70975;SDS011;58635;51.198;6.010;2022-07-10T04:38:04;6.20;;;2.08;;
70975;SDS011;58635;51.198;6.010;2022-07-10T04:40:30;7.43;;;2.45;;
70975;SDS011;58635;51.198;6.010;2022-07-10T04:42:55;6.47;;;2.20;;
70975;SDS011;58635;51.198;6.010;2022-07-10T04:45:20;6.00;;;2.05;;
70975;SDS011;58635;51.198;6.010;2022-07-10T04:47:46;7.10;;;2.40;;
70975;SDS011;58635;51.198;6.010;2022-07-10T04:50:11;5.35;;;2.28;;
70975;SDS011;58635;51.198;6.010;2022-07-10T04:52:36;6.72;;;2.13;;
70975;SDS011;58635;51.198;6.010;2022-07-10T04:55:02;7.20;;;2.13;;
70975;SDS011;58635;51.198;6.010;2022-07-10T04:57:27;11.52;;;2.60;;
70975;SDS011;58635;51.198;6.010;2022-07-10T04:59:53;9.20;;;2.38;;
70975;SDS011;58635;51.198;6.010;2022-07-10T05:02:18;5.00;;;2.15;;
70975;SDS011;58635;51.198;6.010;2022-07-10T05:04:44;7.97;;;2.75;;
70975;SDS011;58635;51.198;6.010;2022-07-10T05:07:09;5.80;;;2.30;;
70975;SDS011;58635;51.198;6.010;2022-07-10T05:09:34;8.13;;;2.75;;
70975;SDS011;58635;51.198;6.010;2022-07-10T05:12:00;9.77;;;2.30;;
70975;SDS011;58635;51.198;6.010;2022-07-10T05:14:25;9.80;;;2.90;;
70975;SDS011;58635;51.198;6.010;2022-07-10T05:16:50;7.85;;;2.28;;
70975;SDS011;58635;51.198;6.010;2022-07-10T05:19:16;7.32;;;2.63;;
70975;SDS011;58635;51.198;6.010;2022-07-10T05:21:41;8.63;;;2.33;;
70975;SDS011;58635;51.198;6.010;2022-07-10T05:24:06;9.40;;;2.45;;
70975;SDS011;58635;51.198;6.010;2022-07-10T05:26:32;9.02;;;2.67;;
70975;SDS011;58635;51.198;6.010;2022-07-10T05:28:57;9.00;;;2.55;;
70975;SDS011;58635;51.198;6.010;2022-07-10T05:31:22;10.93;;;2.83;;
70975;SDS011;58635;51.198;6.010;2022-07-10T05:33:48;9.25;;;2.28;;
70975;SDS011;58635;51.198;6.010;2022-07-10T05:36:13;6.90;;;2.30;;
70975;SDS011;58635;51.198;6.010;2022-07-10T05:38:39;6.30;;;2.30;;
70975;SDS011;58635;51.198;6.010;2022-07-10T05:41:04;5.82;;;2.28;;
70975;SDS011;58635;51.198;6.010;2022-07-10T05:43:29;6.28;;;2.30;;
70975;SDS011;58635;51.198;6.010;2022-07-10T05:45:55;5.45;;;2.08;;
70975;SDS011;58635;51.198;6.010;2022-07-10T05:48:20;7.45;;;2.10;;
70975;SDS011;58635;51.198;6.010;2022-07-10T05:50:46;11.10;;;2.50;;
70975;SDS011;58635;51.198;6.010;2022-07-10T05:53:11;8.05;;;2.38;;
70975;SDS011;58635;51.198;6.010;2022-07-10T05:55:36;8.98;;;2.58;;
70975;SDS011;58635;51.198;6.010;2022-07-10T05:58:02;7.82;;;2.25;;
70975;SDS011;58635;51.198;6.010;2022-07-10T06:00:27;8.55;;;2.65;;
70975;SDS011;58635;51.198;6.010;2022-07-10T06:02:53;4.95;;;2.22;;
70975;SDS011;58635;51.198;6.010;2022-07-10T06:05:18;9.10;;;2.10;;
70975;SDS011;58635;51.198;6.010;2022-07-10T06:07:44;7.65;;;2.90;;
70975;SDS011;58635;51.198;6.010;2022-07-10T06:10:09;8.70;;;2.38;;
70975;SDS011;58635;51.198;6.010;2022-07-10T06:12:35;9.07;;;2.40;;
70975;SDS011;58635;51.198;6.010;2022-07-10T06:15:02;6.13;;;2.50;;
70975;SDS011;58635;51.198;6.010;2022-07-10T06:17:28;7.82;;;2.85;;
70975;SDS011;58635;51.198;6.010;2022-07-10T06:19:53;6.15;;;2.42;;
70975;SDS011;58635;51.198;6.010;2022-07-10T06:22:19;7.65;;;2.30;;
70975;SDS011;58635;51.198;6.010;2022-07-10T06:24:57;7.95;;;2.30;;
70975;SDS011;58635;51.198;6.010;2022-07-10T06:27:24;6.82;;;2.13;;
70975;SDS011;58635;51.198;6.010;2022-07-10T06:29:49;7.72;;;2.40;;
70975;SDS011;58635;51.198;6.010;2022-07-10T06:32:15;6.88;;;2.25;;
70975;SDS011;58635;51.198;6.010;2022-07-10T06:34:40;7.18;;;1.95;;
70975;SDS011;58635;51.198;6.010;2022-07-10T06:37:06;8.13;;;2.22;;
70975;SDS011;58635;51.198;6.010;2022-07-10T06:39:32;5.43;;;2.13;;
70975;SDS011;58635;51.198;6.010;2022-07-10T06:42:04;8.95;;;2.22;;
70975;SDS011;58635;51.198;6.010;2022-07-10T06:44:31;4.78;;;2.05;;
70975;SDS011;58635;51.198;6.010;2022-07-10T06:46:57;5.78;;;2.15;;
70975;SDS011;58635;51.198;6.010;2022-07-10T06:49:42;4.90;;;1.90;;
70975;SDS011;58635;51.198;6.010;2022-07-10T06:52:08;5.22;;;2.20;;
70975;SDS011;58635;51.198;6.010;2022-07-10T06:54:34;8.57;;;2.38;;
70975;SDS011;58635;51.198;6.010;2022-07-10T06:57:00;9.65;;;2.53;;
70975;SDS011;58635;51.198;6.010;2022-07-10T06:59:26;8.00;;;2.63;;
70975;SDS011;58635;51.198;6.010;2022-07-10T07:01:52;8.50;;;2.30;;
70975;SDS011;58635;51.198;6.010;2022-07-10T07:04:17;7.13;;;2.17;;
70975;SDS011;58635;51.198;6.010;2022-07-10T07:06:43;9.10;;;1.98;;
70975;SDS011;58635;51.198;6.010;2022-07-10T07:09:08;7.00;;;1.77;;
70975;SDS011;58635;51.198;6.010;2022-07-10T07:11:34;5.55;;;1.92;;
70975;SDS011;58635;51.198;6.010;2022-07-10T07:13:59;8.38;;;1.83;;
70975;SDS011;58635;51.198;6.010;2022-07-10T07:16:24;5.72;;;1.90;;
70975;SDS011;58635;51.198;6.010;2022-07-10T07:19:03;7.20;;;1.90;;
70975;SDS011;58635;51.198;6.010;2022-07-10T07:21:29;7.03;;;1.95;;
70975;SDS011;58635;51.198;6.010;2022-07-10T07:24:14;8.02;;;2.35;;
70975;SDS011;58635;51.198;6.010;2022-07-10T07:26:40;8.60;;;1.67;;
70975;SDS011;58635;51.198;6.010;2022-07-10T07:29:05;5.95;;;1.88;;
70975;SDS011;58635;51.198;6.010;2022-07-10T07:31:31;5.38;;;1.92;;
70975;SDS011;58635;51.198;6.010;2022-07-10T07:33:57;7.50;;;1.98;;
70975;SDS011;58635;51.198;6.010;2022-07-10T07:36:23;7.53;;;1.80;;
70975;SDS011;58635;51.198;6.010;2022-07-10T07:38:48;4.60;;;1.70;;
70975;SDS011;58635;51.198;6.010;2022-07-10T07:41:14;5.90;;;1.92;;
70975;SDS011;58635;51.198;6.010;2022-07-10T07:43:40;5.97;;;1.70;;
70975;SDS011;58635;51.198;6.010;2022-07-10T07:46:06;6.25;;;1.70;;
70975;SDS011;58635;51.198;6.010;2022-07-10T07:48:31;6.38;;;2.70;;
70975;SDS011;58635;51.198;6.010;2022-07-10T07:50:57;6.90;;;2.47;;
70975;SDS011;58635;51.198;6.010;2022-07-10T07:53:22;6.97;;;2.05;;
70975;SDS011;58635;51.198;6.010;2022-07-10T07:55:47;9.20;;;2.13;;
70975;SDS011;58635;51.198;6.010;2022-07-10T07:58:13;6.85;;;2.00;;
70975;SDS011;58635;51.198;6.010;2022-07-10T08:00:38;8.15;;;2.28;;
70975;SDS011;58635;51.198;6.010;2022-07-10T08:03:04;7.88;;;2.95;;
70975;SDS011;58635;51.198;6.010;2022-07-10T08:05:29;5.40;;;2.22;;
70975;SDS011;58635;51.198;6.010;2022-07-10T08:07:56;6.95;;;1.88;;
70975;SDS011;58635;51.198;6.010;2022-07-10T08:10:24;8.48;;;2.13;;
70975;SDS011;58635;51.198;6.010;2022-07-10T08:12:51;8.35;;;2.00;;
70975;SDS011;58635;51.198;6.010;2022-07-10T08:15:17;5.53;;;1.95;;
70975;SDS011;58635;51.198;6.010;2022-07-10T08:17:47;8.18;;;2.03;;
70975;SDS011;58635;51.198;6.010;2022-07-10T08:20:16;9.75;;;2.22;;
70975;SDS011;58635;51.198;6.010;2022-07-10T08:22:42;8.88;;;3.92;;
70975;SDS011;58635;51.198;6.010;2022-07-10T08:25:08;8.13;;;1.90;;
70975;SDS011;58635;51.198;6.010;2022-07-10T08:27:34;8.10;;;2.28;;
70975;SDS011;58635;51.198;6.010;2022-07-10T08:30:00;6.30;;;1.63;;
70975;SDS011;58635;51.198;6.010;2022-07-10T08:32:26;6.05;;;2.08;;
70975;SDS011;58635;51.198;6.010;2022-07-10T08:34:52;9.25;;;2.47;;
70975;SDS011;58635;51.198;6.010;2022-07-10T08:37:18;10.48;;;2.50;;
70975;SDS011;58635;51.198;6.010;2022-07-10T08:39:44;7.53;;;2.28;;
70975;SDS011;58635;51.198;6.010;2022-07-10T08:42:11;7.93;;;2.13;;
70975;SDS011;58635;51.198;6.010;2022-07-10T08:44:37;5.20;;;1.58;;
70975;SDS011;58635;51.198;6.010;2022-07-10T08:47:03;5.65;;;1.90;;
70975;SDS011;58635;51.198;6.010;2022-07-10T08:49:29;5.13;;;1.85;;
70975;SDS011;58635;51.198;6.010;2022-07-10T08:52:08;8.30;;;1.95;;
70975;SDS011;58635;51.198;6.010;2022-07-10T08:55:06;5.10;;;1.77;;
70975;SDS011;58635;51.198;6.010;2022-07-10T08:57:31;7.30;;;1.67;;
70975;SDS011;58635;51.198;6.010;2022-07-10T08:59:59;6.57;;;1.73;;
70975;SDS011;58635;51.198;6.010;2022-07-10T09:02:24;6.90;;;1.67;;
70975;SDS011;58635;51.198;6.010;2022-07-10T09:04:50;9.68;;;2.10;;
70975;SDS011;58635;51.198;6.010;2022-07-10T09:07:15;10.55;;;2.10;;
70975;SDS011;58635;51.198;6.010;2022-07-10T09:09:54;9.77;;;2.10;;
70975;SDS011;58635;51.198;6.010;2022-07-10T09:12:21;7.72;;;1.83;;
70975;SDS011;58635;51.198;6.010;2022-07-10T09:14:48;6.10;;;2.00;;
70975;SDS011;58635;51.198;6.010;2022-07-10T09:17:14;7.20;;;2.13;;
70975;SDS011;58635;51.198;6.010;2022-07-10T09:19:40;11.25;;;2.13;;
70975;SDS011;58635;51.198;6.010;2022-07-10T09:22:07;8.20;;;2.00;;
70975;SDS011;58635;51.198;6.010;2022-07-10T09:24:43;6.65;;;1.80;;
70975;SDS011;58635;51.198;6.010;2022-07-10T09:27:10;6.47;;;1.80;;
70975;SDS011;58635;51.198;6.010;2022-07-10T09:29:44;5.60;;;1.83;;
70975;SDS011;58635;51.198;6.010;2022-07-10T09:32:10;6.47;;;1.80;;
70975;SDS011;58635;51.198;6.010;2022-07-10T09:34:41;12.00;;;2.13;;
70975;SDS011;58635;51.198;6.010;2022-07-10T09:37:16;7.78;;;2.13;;
70975;SDS011;58635;51.198;6.010;2022-07-10T09:39:59;9.23;;;2.00;;
70975;SDS011;58635;51.198;6.010;2022-07-10T09:42:30;7.95;;;1.98;;
70975;SDS011;58635;51.198;6.010;2022-07-10T09:45:13;5.43;;;1.70;;
70975;SDS011;58635;51.198;6.010;2022-07-10T09:47:42;7.78;;;3.08;;
70975;SDS011;58635;51.198;6.010;2022-07-10T09:52:58;6.93;;;2.17;;
70975;SDS011;58635;51.198;6.010;2022-07-10T09:55:26;7.80;;;2.03;;
70975;SDS011;58635;51.198;6.010;2022-07-10T09:57:58;7.28;;;1.98;;
70975;SDS011;58635;51.198;6.010;2022-07-10T10:00:26;4.95;;;1.80;;
70975;SDS011;58635;51.198;6.010;2022-07-10T10:02:57;6.90;;;1.90;;
70975;SDS011;58635;51.198;6.010;2022-07-10T10:05:26;9.18;;;1.77;;
70975;SDS011;58635;51.198;6.010;2022-07-10T10:08:19;6.05;;;1.60;;
70975;SDS011;58635;51.198;6.010;2022-07-10T10:10:49;5.63;;;2.05;;
70975;SDS011;58635;51.198;6.010;2022-07-10T10:13:17;7.72;;;1.85;;
70975;SDS011;58635;51.198;6.010;2022-07-10T10:15:50;9.07;;;1.67;;
70975;SDS011;58635;51.198;6.010;2022-07-10T10:18:17;11.20;;;3.00;;
70975;SDS011;58635;51.198;6.010;2022-07-10T10:20:44;10.52;;;2.20;;
70975;SDS011;58635;51.198;6.010;2022-07-10T10:23:18;6.15;;;2.10;;
70975;SDS011;58635;51.198;6.010;2022-07-10T10:25:48;4.70;;;1.60;;
70975;SDS011;58635;51.198;6.010;2022-07-10T10:28:16;5.63;;;1.67;;
70975;SDS011;58635;51.198;6.010;2022-07-10T10:30:48;7.28;;;1.83;;
70975;SDS011;58635;51.198;6.010;2022-07-10T10:33:57;8.82;;;1.98;;
70975;SDS011;58635;51.198;6.010;2022-07-10T10:36:11;7.35;;;1.83;;
70975;SDS011;58635;51.198;6.010;2022-07-10T10:39:00;7.82;;;2.10;;
70975;SDS011;58635;51.198;6.010;2022-07-10T10:41:36;5.57;;;1.85;;
70975;SDS011;58635;51.198;6.010;2022-07-10T10:46:37;8.55;;;2.72;;
70975;SDS011;58635;51.198;6.010;2022-07-10T10:52:26;7.32;;;1.95;;
70975;SDS011;58635;51.198;6.010;2022-07-10T10:59:57;8.18;;;1.98;;
70975;SDS011;58635;51.198;6.010;2022-07-10T11:07:54;4.45;;;2.60;;
70975;SDS011;58635;51.198;6.010;2022-07-10T11:15:36;9.88;;;2.20;;
70975;SDS011;58635;51.198;6.010;2022-07-10T11:18:07;10.57;;;3.63;;
70975;SDS011;58635;51.198;6.010;2022-07-10T11:20:36;10.38;;;5.35;;
70975;SDS011;58635;51.198;6.010;2022-07-10T11:25:36;8.02;;;2.42;;
70975;SDS011;58635;51.198;6.010;2022-07-10T11:28:12;7.57;;;2.45;;
70975;SDS011;58635;51.198;6.010;2022-07-10T11:30:50;5.22;;;1.92;;
70975;SDS011;58635;51.198;6.010;2022-07-10T11:33:18;5.18;;;2.10;;
70975;SDS011;58635;51.198;6.010;2022-07-10T11:35:46;5.70;;;2.08;;
70975;SDS011;58635;51.198;6.010;2022-07-10T11:38:17;5.65;;;2.17;;
70975;SDS011;58635;51.198;6.010;2022-07-10T11:40:44;6.03;;;1.90;;
70975;SDS011;58635;51.198;6.010;2022-07-10T11:43:09;4.95;;;1.92;;
70975;SDS011;58635;51.198;6.010;2022-07-10T11:45:38;4.63;;;2.00;;
70975;SDS011;58635;51.198;6.010;2022-07-10T11:48:04;6.70;;;2.15;;
70975;SDS011;58635;51.198;6.010;2022-07-10T11:50:36;3.55;;;2.00;;
70975;SDS011;58635;51.198;6.010;2022-07-10T11:53:03;5.35;;;3.70;;
70975;SDS011;58635;51.198;6.010;2022-07-10T11:55:29;5.22;;;2.40;;
70975;SDS011;58635;51.198;6.010;2022-07-10T11:57:56;4.80;;;2.10;;
70975;SDS011;58635;51.198;6.010;2022-07-10T12:02:51;4.88;;;2.15;;
70975;SDS011;58635;51.198;6.010;2022-07-10T12:07:56;4.03;;;1.73;;
70975;SDS011;58635;51.198;6.010;2022-07-10T12:10:25;4.13;;;2.03;;
70975;SDS011;58635;51.198;6.010;2022-07-10T12:12:51;5.93;;;1.98;;
70975;SDS011;58635;51.198;6.010;2022-07-10T12:15:38;6.18;;;2.00;;
70975;SDS011;58635;51.198;6.010;2022-07-10T12:18:04;4.93;;;1.80;;
70975;SDS011;58635;51.198;6.010;2022-07-10T12:20:30;9.80;;;2.13;;
70975;SDS011;58635;51.198;6.010;2022-07-10T12:22:57;7.00;;;2.45;;
70975;SDS011;58635;51.198;6.010;2022-07-10T12:25:23;9.02;;;5.03;;
70975;SDS011;58635;51.198;6.010;2022-07-10T12:27:54;14.65;;;1.90;;
70975;SDS011;58635;51.198;6.010;2022-07-10T12:30:20;5.72;;;2.60;;
70975;SDS011;58635;51.198;6.010;2022-07-10T12:32:45;7.13;;;3.17;;
70975;SDS011;58635;51.198;6.010;2022-07-10T12:35:11;4.05;;;1.85;;
70975;SDS011;58635;51.198;6.010;2022-07-10T12:37:49;6.10;;;1.60;;
70975;SDS011;58635;51.198;6.010;2022-07-10T12:40:30;5.45;;;1.58;;
70975;SDS011;58635;51.198;6.010;2022-07-10T12:43:05;4.90;;;1.70;;
70975;SDS011;58635;51.198;6.010;2022-07-10T12:45:31;4.38;;;1.58;;
70975;SDS011;58635;51.198;6.010;2022-07-10T12:47:56;2.90;;;1.63;;
70975;SDS011;58635;51.198;6.010;2022-07-10T12:50:22;6.15;;;1.88;;
70975;SDS011;58635;51.198;6.010;2022-07-10T12:52:49;4.20;;;1.40;;
70975;SDS011;58635;51.198;6.010;2022-07-10T12:57:50;15.32;;;13.68;;
70975;SDS011;58635;51.198;6.010;2022-07-10T13:00:24;14.45;;;12.90;;
70975;SDS011;58635;51.198;6.010;2022-07-10T13:03:02;13.43;;;11.98;;
70975;SDS011;58635;51.198;6.010;2022-07-10T13:05:43;6.20;;;3.08;;
70975;SDS011;58635;51.198;6.010;2022-07-10T13:08:21;5.57;;;2.28;;
70975;SDS011;58635;51.198;6.010;2022-07-10T13:10:53;4.38;;;2.78;;
70975;SDS011;58635;51.198;6.010;2022-07-10T13:13:23;9.35;;;6.93;;
70975;SDS011;58635;51.198;6.010;2022-07-10T13:15:49;13.85;;;10.85;;
70975;SDS011;58635;51.198;6.010;2022-07-10T13:18:16;18.10;;;11.60;;
70975;SDS011;58635;51.198;6.010;2022-07-10T13:20:46;10.40;;;6.95;;
70975;SDS011;58635;51.198;6.010;2022-07-10T13:23:12;11.00;;;9.63;;
70975;SDS011;58635;51.198;6.010;2022-07-10T13:25:38;10.02;;;8.43;;
70975;SDS011;58635;51.198;6.010;2022-07-10T13:28:07;5.43;;;2.65;;
70975;SDS011;58635;51.198;6.010;2022-07-10T13:30:34;6.65;;;3.08;;
70975;SDS011;58635;51.198;6.010;2022-07-10T13:33:00;11.20;;;7.28;;
70975;SDS011;58635;51.198;6.010;2022-07-10T13:35:28;12.32;;;7.03;;
70975;SDS011;58635;51.198;6.010;2022-07-10T13:37:55;6.93;;;3.08;;
70975;SDS011;58635;51.198;6.010;2022-07-10T13:40:20;10.18;;;4.28;;
70975;SDS011;58635;51.198;6.010;2022-07-10T13:42:46;9.00;;;4.03;;
70975;SDS011;58635;51.198;6.010;2022-07-10T13:45:11;10.90;;;5.47;;
70975;SDS011;58635;51.198;6.010;2022-07-10T13:47:36;7.65;;;3.63;;
70975;SDS011;58635;51.198;6.010;2022-07-10T13:50:02;5.18;;;2.40;;
70975;SDS011;58635;51.198;6.010;2022-07-10T13:52:28;4.78;;;2.10;;
70975;SDS011;58635;51.198;6.010;2022-07-10T13:54:54;4.30;;;1.65;;
70975;SDS011;58635;51.198;6.010;2022-07-10T13:57:20;5.18;;;1.90;;
70975;SDS011;58635;51.198;6.010;2022-07-10T13:59:45;3.95;;;1.60;;
70975;SDS011;58635;51.198;6.010;2022-07-10T14:02:11;5.28;;;1.40;;
70975;SDS011;58635;51.198;6.010;2022-07-10T14:04:37;7.75;;;2.13;;
70975;SDS011;58635;51.198;6.010;2022-07-10T14:07:02;3.63;;;1.60;;
70975;SDS011;58635;51.198;6.010;2022-07-10T14:09:28;3.13;;;1.88;;
70975;SDS011;58635;51.198;6.010;2022-07-10T14:11:53;4.03;;;1.73;;
70975;SDS011;58635;51.198;6.010;2022-07-10T14:14:19;4.15;;;1.48;;
70975;SDS011;58635;51.198;6.010;2022-07-10T14:16:44;4.60;;;1.73;;
70975;SDS011;58635;51.198;6.010;2022-07-10T14:19:10;5.03;;;1.60;;
70975;SDS011;58635;51.198;6.010;2022-07-10T14:21:35;4.60;;;1.50;;
70975;SDS011;58635;51.198;6.010;2022-07-10T14:24:03;4.00;;;1.42;;
70975;SDS011;58635;51.198;6.010;2022-07-10T14:26:29;6.05;;;1.52;;
70975;SDS011;58635;51.198;6.010;2022-07-10T14:28:54;4.55;;;1.63;;
70975;SDS011;58635;51.198;6.010;2022-07-10T14:31:20;4.15;;;1.50;;
70975;SDS011;58635;51.198;6.010;2022-07-10T14:33:45;4.82;;;1.45;;
70975;SDS011;58635;51.198;6.010;2022-07-10T14:36:11;2.35;;;1.05;;
70975;SDS011;58635;51.198;6.010;2022-07-10T14:38:36;4.95;;;2.20;;
70975;SDS011;58635;51.198;6.010;2022-07-10T14:41:02;3.30;;;1.38;;
70975;SDS011;58635;51.198;6.010;2022-07-10T14:43:29;4.32;;;1.33;;
70975;SDS011;58635;51.198;6.010;2022-07-10T14:45:58;3.30;;;1.45;;
70975;SDS011;58635;51.198;6.010;2022-07-10T14:48:25;6.55;;;1.80;;
70975;SDS011;58635;51.198;6.010;2022-07-10T14:50:50;5.40;;;1.50;;
70975;SDS011;58635;51.198;6.010;2022-07-10T14:53:16;3.78;;;1.38;;
70975;SDS011;58635;51.198;6.010;2022-07-10T14:55:41;1.77;;;1.10;;
70975;SDS011;58635;51.198;6.010;2022-07-10T14:58:07;3.72;;;1.40;;
70975;SDS011;58635;51.198;6.010;2022-07-10T15:00:32;7.25;;;3.72;;
70975;SDS011;58635;51.198;6.010;2022-07-10T15:02:58;11.88;;;7.55;;
70975;SDS011;58635;51.198;6.010;2022-07-10T15:05:24;3.25;;;1.70;;
70975;SDS011;58635;51.198;6.010;2022-07-10T15:07:49;5.53;;;2.25;;
70975;SDS011;58635;51.198;6.010;2022-07-10T15:10:15;3.88;;;1.60;;
70975;SDS011;58635;51.198;6.010;2022-07-10T15:12:41;7.25;;;4.47;;
70975;SDS011;58635;51.198;6.010;2022-07-10T15:15:07;13.88;;;10.15;;
70975;SDS011;58635;51.198;6.010;2022-07-10T15:17:34;3.20;;;1.40;;
70975;SDS011;58635;51.198;6.010;2022-07-10T15:20:00;6.10;;;2.75;;